createdAt,value
2018-03-06T00:01:26.938Z,148.0
2018-03-06T00:11:26.881Z,147.4
2018-03-06T00:21:26.788Z,153.1
2018-03-06T00:31:28.119Z,154.0
2018-03-06T00:41:27.496Z,158.1
2018-03-06T00:51:27.880Z,155.9
2018-03-06T01:01:27.131Z,154.6
2018-03-06T01:11:26.929Z,155.0
2018-03-06T01:21:28.318Z,160.3
2018-03-06T01:31:26.902Z,150.1
2018-03-06T01:41:27.748Z,155.4
2018-03-06T01:51:27.429Z,153.9
2018-03-06T02:01:37.485Z,147.1
2018-03-06T02:11:27.004Z,145.3
2018-03-06T02:21:26.267Z,156.5
2018-03-06T02:31:26.943Z,148.2
2018-03-06T02:41:26.886Z,150.1
2018-03-06T02:51:27.479Z,144.8
2018-03-06T03:01:28.066Z,141.6
2018-03-06T03:11:26.698Z,144.3
2018-03-06T03:21:26.472Z,157.5
2018-03-06T03:31:27.082Z,149.1
2018-03-06T03:41:27.849Z,137.5
2018-03-06T03:51:29.482Z,137.5
2018-03-06T04:01:28.815Z,139.1
2018-03-06T04:11:27.636Z,140.0
2018-03-06T04:21:27.332Z,153.8
2018-03-06T04:31:28.563Z,138.3
2018-03-06T04:41:27.729Z,148.6
2018-03-06T04:51:27.674Z,144.3
2018-03-06T05:01:26.491Z,146.7
2018-03-06T05:11:27.073Z,161.3
2018-03-06T05:21:34.013Z,159.7
2018-03-06T05:31:27.244Z,153.6
2018-03-06T05:41:27.556Z,157.2
2018-03-06T05:51:28.255Z,139.7
2018-03-06T06:01:26.735Z,132.6
2018-03-06T06:11:26.828Z,140.0
2018-03-06T06:21:27.536Z,132.0
2018-03-06T06:31:27.416Z,142.0
2018-03-06T06:41:27.045Z,140.2
2018-03-06T06:51:28.574Z,117.3
2018-03-06T07:01:28.815Z,105.3
2018-03-06T07:11:26.288Z,115.6
2018-03-06T07:21:27.093Z,118.0
2018-03-06T07:31:27.045Z,119.2
2018-03-06T07:41:27.160Z,130.9
2018-03-06T07:51:27.649Z,142.2
2018-03-06T08:01:27.699Z,140.1
2018-03-06T08:11:27.055Z,144.2
2018-03-06T08:21:26.711Z,150.1
2018-03-06T08:31:26.548Z,150.4
2018-03-06T08:41:27.593Z,146.5
2018-03-06T08:51:27.227Z,143.2
2018-03-06T09:01:26.820Z,137.7
2018-03-06T09:11:26.726Z,134.7
2018-03-06T09:21:26.598Z,115.5
2018-03-06T09:31:29.531Z,97.8
2018-03-06T09:41:27.051Z,90.0
2018-03-06T09:51:26.603Z,72.9
2018-03-06T10:01:27.716Z,81.4
2018-03-06T10:11:27.406Z,63.1
2018-03-06T10:21:27.161Z,68.8
2018-03-06T10:31:27.362Z,71.1
2018-03-06T10:41:27.299Z,76.6
2018-03-06T10:51:26.964Z,62.9
2018-03-06T11:01:27.110Z,81.5
2018-03-06T11:11:27.162Z,71.4
2018-03-06T11:21:27.250Z,75.1
2018-03-06T11:31:26.750Z,75.6
2018-03-06T11:41:26.452Z,81.5
2018-03-06T11:51:27.570Z,79.5
2018-03-06T12:01:27.105Z,78.1
2018-03-06T12:11:28.183Z,81.4
2018-03-06T12:21:27.595Z,79.4
2018-03-06T12:31:27.084Z,77.8
2018-03-06T12:41:26.996Z,85.3
2018-03-06T12:51:27.774Z,79.0
2018-03-06T13:01:26.366Z,82.9
2018-03-06T13:11:26.898Z,84.4
2018-03-06T13:21:27.053Z,102.4
2018-03-06T13:31:29.793Z,93.1
2018-03-06T13:41:26.460Z,93.0
2018-03-06T13:51:27.288Z,98.2
2018-03-06T14:01:26.908Z,102.0
2018-03-06T14:11:27.365Z,99.8
2018-03-06T14:21:28.046Z,108.9
2018-03-06T14:31:26.920Z,92.3
2018-03-06T14:41:27.416Z,92.2
2018-03-06T14:51:27.229Z,79.1
2018-03-06T15:01:26.864Z,80.4
2018-03-06T15:11:26.718Z,57.6
2018-03-06T15:21:26.557Z,64.2
2018-03-06T15:31:27.706Z,54.0
2018-03-06T15:41:26.266Z,50.2
2018-03-06T15:51:28.377Z,49.2
2018-03-06T16:01:27.332Z,45.7
2018-03-06T16:11:27.505Z,50.4
2018-03-06T16:21:27.958Z,52.0
2018-03-06T16:31:26.972Z,49.8
2018-03-06T16:41:26.963Z,56.2
2018-03-06T16:51:26.686Z,57.4
2018-03-06T17:01:27.807Z,61.0
2018-03-06T17:11:26.383Z,68.3
2018-03-06T17:21:27.210Z,57.7
2018-03-06T17:31:27.755Z,65.7
2018-03-06T17:41:26.859Z,67.5
2018-03-06T17:51:28.191Z,72.3
2018-03-06T18:01:27.000Z,64.7
2018-03-06T18:11:26.658Z,77.4
2018-03-06T18:21:27.127Z,88.8
2018-03-06T18:31:28.281Z,84.6
2018-03-06T18:41:28.624Z,86.8
2018-03-06T18:51:27.780Z,84.3
2018-03-06T19:01:26.804Z,92.0
2018-03-06T19:11:26.568Z,92.1
2018-03-06T19:21:26.935Z,99.4
2018-03-06T19:31:26.505Z,89.0
2018-03-06T19:41:27.909Z,95.3
2018-03-06T19:51:27.256Z,97.3
2018-03-06T20:01:27.211Z,103.4
2018-03-06T20:11:27.045Z,106.3
2018-03-06T20:21:28.472Z,119.0
2018-03-06T20:31:27.659Z,126.5
2018-03-06T20:41:27.178Z,133.4
2018-03-06T20:51:29.182Z,136.2
2018-03-06T21:01:26.781Z,126.2
2018-03-06T21:11:26.487Z,150.9
2018-03-06T21:21:27.312Z,143.8
2018-03-06T21:31:28.451Z,149.5
2018-03-06T21:41:28.534Z,174.0
2018-03-06T21:51:27.984Z,171.9
2018-03-06T22:01:26.482Z,228.7
2018-03-06T22:11:27.725Z,170.5
2018-03-06T22:21:26.523Z,155.5
2018-03-06T22:31:27.196Z,156.3
2018-03-06T22:41:26.814Z,161.7
2018-03-06T22:51:26.347Z,149.7
2018-03-06T23:01:27.304Z,161.2
2018-03-06T23:11:27.786Z,156.7
2018-03-06T23:21:26.549Z,157.1
2018-03-06T23:31:27.549Z,172.9
2018-03-06T23:41:27.237Z,194.3
2018-03-06T23:51:29.387Z,267.7
